createdAt,value
2023-11-30T10:21:43.501Z,16.15
2023-11-30T10:24:13.659Z,15.48
2023-11-30T10:26:46.332Z,15.98
2023-11-30T10:29:22.648Z,12.75
2023-11-30T10:31:57.607Z,15.40
2023-11-30T10:34:32.217Z,16.42
2023-11-30T10:37:06.545Z,14.93
2023-11-30T10:39:45.600Z,18.90
2023-11-30T10:42:18.446Z,17.13
2023-11-30T10:44:52.483Z,17.02
2023-11-30T10:47:22.219Z,13.27
2023-11-30T10:49:54.066Z,19.13
2023-11-30T10:52:25.484Z,15.50
2023-11-30T10:55:05.317Z,19.58
2023-11-30T10:57:35.021Z,18.98
2023-11-30T11:00:04.783Z,22.05
2023-11-30T11:02:42.770Z,19.73
2023-11-30T11:05:14.887Z,24.05
2023-11-30T11:07:52.715Z,22.40
2023-11-30T11:10:26.253Z,17.98
2023-11-30T11:12:58.813Z,20.67
2023-11-30T11:15:29.895Z,18.80
2023-11-30T11:18:05.166Z,15.13
2023-11-30T11:20:37.554Z,17.93
2023-11-30T11:23:15.811Z,16.67
2023-11-30T11:25:52.014Z,20.23
2023-11-30T11:28:21.114Z,19.60
2023-11-30T11:30:55.253Z,18.83
2023-11-30T11:33:26.030Z,21.13
2023-11-30T11:35:57.640Z,19.43
2023-11-30T11:38:28.944Z,17.53
2023-11-30T11:41:00.779Z,17.00
2023-11-30T11:43:32.194Z,18.07
2023-11-30T11:46:04.153Z,16.10
2023-11-30T11:48:34.054Z,19.73
2023-11-30T11:51:03.145Z,16.77
2023-11-30T11:53:33.765Z,18.70
2023-11-30T11:56:09.919Z,17.17
2023-11-30T11:58:40.731Z,19.35
2023-11-30T12:01:09.824Z,18.53
2023-11-30T12:03:48.440Z,19.02
2023-11-30T12:06:28.769Z,14.20
2023-11-30T12:09:12.857Z,19.37
2023-11-30T12:11:46.178Z,14.40
2023-11-30T12:14:16.818Z,13.93
2023-11-30T12:16:46.263Z,17.05
2023-11-30T12:19:20.523Z,16.13
2023-11-30T12:21:50.869Z,12.27
2023-11-30T12:24:22.737Z,14.02
2023-11-30T12:26:52.723Z,17.97
2023-11-30T12:29:23.148Z,14.67
2023-11-30T12:31:53.523Z,19.37
2023-11-30T12:34:25.167Z,17.40
2023-11-30T12:37:17.506Z,16.13
2023-11-30T12:39:48.378Z,14.37
2023-11-30T12:42:19.900Z,13.43
2023-11-30T12:44:49.547Z,16.70
2023-11-30T12:47:18.686Z,13.40
2023-11-30T12:49:49.307Z,16.80
2023-11-30T12:52:18.719Z,14.60
2023-11-30T12:54:53.681Z,13.10
2023-11-30T12:57:25.104Z,10.30
2023-11-30T12:59:55.656Z,12.83
2023-11-30T13:02:25.715Z,19.30
2023-11-30T13:04:55.290Z,19.77
2023-11-30T13:07:25.564Z,22.00
2023-11-30T13:09:56.511Z,21.60
2023-11-30T13:12:30.302Z,16.03
2023-11-30T13:14:59.628Z,18.00
2023-11-30T13:17:29.765Z,22.20
2023-11-30T13:20:00.277Z,17.73
2023-11-30T13:22:50.603Z,17.57
2023-11-30T13:25:24.437Z,18.13
2023-11-30T13:27:53.915Z,21.30
2023-11-30T13:30:23.292Z,17.20
2023-11-30T13:32:52.309Z,14.63
2023-11-30T13:35:21.667Z,18.67
2023-11-30T13:37:51.501Z,19.03
2023-11-30T13:40:22.793Z,26.33
2023-11-30T13:42:52.783Z,18.43
2023-11-30T13:45:25.820Z,12.47
2023-11-30T13:47:55.223Z,20.03
2023-11-30T13:50:30.750Z,17.43
2023-11-30T13:53:06.447Z,17.03
2023-11-30T13:55:37.645Z,16.97
2023-11-30T13:58:09.072Z,15.23
2023-11-30T14:00:38.830Z,18.03
2023-11-30T14:03:08.134Z,20.40
2023-11-30T14:05:37.230Z,16.77
2023-11-30T14:08:07.017Z,18.20
2023-11-30T14:10:38.319Z,17.83
2023-11-30T14:13:09.088Z,15.63
2023-11-30T14:15:42.832Z,17.20
2023-11-30T14:18:11.973Z,19.20
2023-11-30T14:20:43.040Z,18.23
2023-11-30T14:23:12.507Z,18.03
2023-11-30T14:25:43.585Z,17.97
2023-11-30T14:28:13.966Z,21.00
2023-11-30T14:30:44.651Z,17.10
2023-11-30T14:33:14.579Z,15.93
2023-11-30T14:35:44.008Z,19.07
2023-11-30T14:38:13.315Z,18.73
2023-11-30T14:40:44.182Z,27.33
2023-11-30T14:43:14.031Z,21.73
2023-11-30T14:45:43.787Z,25.50
2023-11-30T14:48:13.469Z,16.93
2023-11-30T14:50:43.119Z,21.00
2023-11-30T14:53:12.845Z,16.67
2023-11-30T14:55:43.702Z,23.90
2023-11-30T14:58:13.381Z,23.33
2023-11-30T15:00:42.744Z,19.53
2023-11-30T15:03:12.707Z,20.80
2023-11-30T15:05:45.844Z,25.07
2023-11-30T15:08:16.425Z,31.83
2023-11-30T15:10:50.983Z,35.57
2023-11-30T15:13:21.795Z,23.03
2023-11-30T15:15:51.392Z,25.87
2023-11-30T15:18:21.975Z,22.87
2023-11-30T15:20:53.381Z,21.40
2023-11-30T15:23:27.216Z,26.43
2023-11-30T15:25:58.257Z,16.70
2023-11-30T15:28:27.873Z,28.90
2023-11-30T15:31:00.934Z,37.73
2023-11-30T15:33:30.888Z,21.77
2023-11-30T15:36:04.074Z,28.97
2023-11-30T15:38:35.441Z,22.57
2023-11-30T15:41:11.605Z,39.10
2023-11-30T15:43:41.518Z,19.47
2023-11-30T15:46:13.467Z,15.93
2023-11-30T15:48:43.362Z,16.90
2023-11-30T15:51:13.333Z,15.23
2023-11-30T15:53:42.940Z,17.20
2023-11-30T15:56:22.132Z,18.03
2023-11-30T15:58:55.574Z,14.37
2023-11-30T16:01:28.642Z,30.07
2023-11-30T16:03:59.627Z,21.80
2023-11-30T16:06:33.952Z,17.63
2023-11-30T16:09:10.791Z,14.83
2023-11-30T16:11:42.143Z,22.80
2023-11-30T16:14:12.118Z,25.50
2023-11-30T16:16:43.008Z,28.63
2023-11-30T16:19:12.685Z,22.37
2023-11-30T16:21:42.551Z,16.63
2023-11-30T16:24:12.426Z,23.73
2023-11-30T16:26:44.205Z,18.47
2023-11-30T16:29:22.529Z,19.43
2023-11-30T16:31:53.435Z,18.53
2023-11-30T16:34:32.200Z,17.60
2023-11-30T16:37:08.658Z,18.67
2023-11-30T16:39:41.401Z,21.37
2023-11-30T16:42:14.974Z,21.30
2023-11-30T16:44:48.084Z,17.67
2023-11-30T16:47:19.703Z,27.93
2023-11-30T16:49:49.560Z,27.03
2023-11-30T16:52:19.150Z,28.00
2023-11-30T16:54:48.451Z,23.53
2023-11-30T16:57:19.348Z,21.60
2023-11-30T16:59:49.196Z,28.27
2023-11-30T17:02:18.704Z,26.37
2023-11-30T17:04:48.421Z,25.60
2023-11-30T17:07:17.960Z,25.60
2023-11-30T17:09:50.082Z,27.17
2023-11-30T17:12:23.471Z,22.20
2023-11-30T17:14:54.916Z,26.07
2023-11-30T17:17:36.080Z,13.10
2023-11-30T17:20:17.622Z,16.97
2023-11-30T17:22:50.112Z,17.57
2023-11-30T17:25:23.032Z,23.23
2023-11-30T17:27:55.148Z,27.90
2023-11-30T17:30:27.124Z,22.17
2023-11-30T17:32:56.606Z,24.83
2023-11-30T17:35:28.244Z,26.37
2023-11-30T17:37:58.634Z,41.83
2023-11-30T17:40:28.775Z,24.63
2023-11-30T17:43:03.085Z,30.23
2023-11-30T17:45:32.934Z,26.70
2023-11-30T17:48:02.816Z,26.03
2023-11-30T17:50:33.705Z,26.30
2023-11-30T17:53:04.087Z,34.57
2023-11-30T17:55:34.525Z,42.77
2023-11-30T17:58:05.458Z,32.87
2023-11-30T18:00:35.192Z,27.27
2023-11-30T18:03:04.602Z,13.77
2023-11-30T18:05:34.233Z,21.47
2023-11-30T18:08:03.566Z,27.00
2023-11-30T18:10:32.930Z,28.23
2023-11-30T18:13:02.616Z,27.43
2023-11-30T18:15:35.453Z,26.83
2023-11-30T18:18:05.640Z,23.67
2023-11-30T18:20:35.574Z,51.53
2023-11-30T18:23:04.968Z,16.93
2023-11-30T18:25:34.630Z,24.97
2023-11-30T18:28:04.446Z,24.27
2023-11-30T18:30:36.578Z,31.30
2023-11-30T18:33:08.114Z,29.63
2023-11-30T18:35:37.642Z,31.60
2023-11-30T18:38:07.121Z,37.43
2023-11-30T18:40:37.166Z,23.40
2023-11-30T18:43:07.163Z,34.07
2023-11-30T18:45:40.196Z,36.57
2023-11-30T18:48:11.854Z,62.90
2023-11-30T18:50:42.083Z,40.30
2023-11-30T18:53:11.686Z,44.03
2023-11-30T18:55:44.545Z,39.60
2023-11-30T18:58:21.526Z,55.90
2023-11-30T19:00:55.501Z,27.57
2023-11-30T19:03:27.849Z,40.80
2023-11-30T19:06:00.551Z,43.43
2023-11-30T19:08:31.507Z,34.43
2023-11-30T19:11:02.947Z,35.50
2023-11-30T19:13:35.865Z,39.57
2023-11-30T19:16:12.155Z,55.03
2023-11-30T19:18:41.899Z,33.87
2023-11-30T19:21:13.273Z,35.53
2023-11-30T19:23:49.393Z,32.23
2023-11-30T19:26:19.366Z,38.50
2023-11-30T19:28:48.833Z,36.03
2023-11-30T19:31:24.371Z,40.10
2023-11-30T19:34:02.237Z,34.23
2023-11-30T19:36:32.204Z,41.50
2023-11-30T19:39:01.924Z,36.90
2023-11-30T19:41:33.471Z,41.23
2023-11-30T19:44:06.020Z,25.87
2023-11-30T19:46:41.854Z,38.03
2023-11-30T19:49:17.373Z,44.57
2023-11-30T19:51:51.605Z,45.33
2023-11-30T19:54:21.080Z,35.17
2023-11-30T19:56:50.352Z,42.47
2023-11-30T19:59:20.995Z,38.37
2023-11-30T20:01:52.486Z,52.80
2023-11-30T20:04:22.549Z,24.00
2023-11-30T20:06:52.110Z,29.63
2023-11-30T20:09:21.565Z,35.20
2023-11-30T20:11:51.388Z,43.60
2023-11-30T20:14:21.388Z,35.30
2023-11-30T20:16:52.385Z,34.33
2023-11-30T20:19:22.132Z,23.80
2023-11-30T20:21:51.649Z,30.40
2023-11-30T20:24:21.273Z,38.07
2023-11-30T20:26:50.568Z,42.87
2023-11-30T20:29:19.869Z,43.40
2023-11-30T20:31:49.582Z,25.87
2023-11-30T20:34:21.445Z,43.07
2023-11-30T20:36:52.969Z,30.83
2023-11-30T20:39:23.790Z,39.13
2023-11-30T20:41:53.994Z,41.87
2023-11-30T20:44:23.721Z,33.57
2023-11-30T20:46:53.477Z,40.57
2023-11-30T20:49:27.577Z,44.03
2023-11-30T20:51:57.424Z,36.57
2023-11-30T20:54:26.964Z,38.33
2023-11-30T20:56:58.415Z,35.60
2023-11-30T20:59:32.200Z,36.87
2023-11-30T21:02:05.929Z,38.40
2023-11-30T21:04:47.580Z,38.30
2023-11-30T21:07:28.919Z,40.60
2023-11-30T21:10:01.550Z,46.30
2023-11-30T21:12:31.846Z,56.17
2023-11-30T21:15:01.640Z,48.03
2023-11-30T21:17:31.811Z,48.17
2023-11-30T21:20:03.314Z,44.63
2023-11-30T21:22:36.027Z,40.77
2023-11-30T21:25:06.002Z,42.87
2023-11-30T21:27:35.926Z,59.03
2023-11-30T21:30:07.702Z,45.00
2023-11-30T21:32:37.477Z,62.53
2023-11-30T21:35:13.945Z,41.67
2023-11-30T21:37:43.416Z,34.57
2023-11-30T21:40:14.350Z,56.70
2023-11-30T21:42:44.301Z,47.07
2023-11-30T21:45:14.270Z,48.10
2023-11-30T21:47:44.113Z,39.43
2023-11-30T21:50:23.552Z,43.93
2023-11-30T21:52:54.959Z,36.87
2023-11-30T21:55:25.074Z,57.13
2023-11-30T21:57:55.128Z,51.20
2023-11-30T22:00:25.186Z,46.17
2023-11-30T22:02:55.705Z,41.27
2023-11-30T22:05:33.358Z,61.63
2023-11-30T22:08:09.589Z,59.90
2023-11-30T22:10:41.610Z,30.97
2023-11-30T22:13:11.956Z,44.17
2023-11-30T22:15:41.746Z,44.20
2023-11-30T22:18:13.487Z,52.57
2023-11-30T22:20:47.699Z,28.57
2023-11-30T22:23:17.627Z,50.80
2023-11-30T22:25:51.173Z,44.17
2023-11-30T22:28:25.453Z,38.27
2023-11-30T22:30:58.284Z,38.00
2023-11-30T22:33:35.804Z,46.67
2023-11-30T22:36:08.655Z,48.00
2023-11-30T22:38:43.942Z,56.17
2023-11-30T22:41:15.790Z,50.13
2023-11-30T22:43:45.145Z,43.20
2023-11-30T22:46:21.641Z,37.17
2023-11-30T22:48:53.746Z,44.70
2023-11-30T22:51:27.891Z,60.53
2023-11-30T22:53:59.371Z,45.10
2023-11-30T22:56:31.187Z,48.73
2023-11-30T22:59:01.079Z,44.37
2023-11-30T23:01:32.551Z,51.27
2023-11-30T23:04:03.046Z,53.97
2023-11-30T23:06:34.478Z,52.30
2023-11-30T23:09:08.729Z,48.87
2023-11-30T23:11:38.185Z,44.00
2023-11-30T23:14:10.448Z,57.63
2023-11-30T23:16:43.233Z,47.33
2023-11-30T23:19:16.212Z,50.23
2023-11-30T23:21:50.005Z,57.60
2023-11-30T23:24:25.884Z,55.83
2023-11-30T23:27:01.034Z,38.53
2023-11-30T23:29:37.408Z,45.67
2023-11-30T23:32:10.660Z,44.43
2023-11-30T23:34:45.491Z,38.87
2023-11-30T23:37:19.237Z,40.70
2023-11-30T23:39:49.232Z,60.97
2023-11-30T23:42:18.953Z,49.23
2023-11-30T23:44:48.925Z,50.47
2023-11-30T23:47:18.324Z,41.70
2023-11-30T23:49:48.353Z,45.43
2023-11-30T23:52:19.506Z,51.93
2023-11-30T23:54:53.470Z,44.30
2023-11-30T23:57:29.352Z,64.93
